createdAt,value
2022-10-05T00:00:48.930Z,101489.19
2022-10-05T00:05:50.627Z,101482.09
2022-10-05T00:10:52.562Z,101492.69
2022-10-05T00:16:19.244Z,101490.88
2022-10-05T00:21:23.982Z,101476.81
2022-10-05T00:26:31.539Z,101467.97
2022-10-05T00:31:35.904Z,101460.97
2022-10-05T00:36:39.370Z,101460.16
2022-10-05T00:42:12.728Z,101463.63
2022-10-05T00:47:31.994Z,101482.03
2022-10-05T00:52:51.991Z,101477.66
2022-10-05T00:58:03.480Z,101472.31
2022-10-05T01:03:26.280Z,101468.78
2022-10-05T01:08:58.980Z,101464.44
2022-10-05T01:14:25.724Z,101460.06
2022-10-05T01:19:46.111Z,101444.31
2022-10-05T01:25:07.400Z,101447.84
2022-10-05T01:30:14.070Z,101439.03
2022-10-05T01:35:15.869Z,101433.75
2022-10-05T01:40:45.915Z,101430.19
2022-10-05T01:46:23.387Z,101418.81
2022-10-05T01:51:53.364Z,101401.25
2022-10-05T01:57:05.048Z,101389.84
2022-10-05T02:02:12.341Z,101381.84
2022-10-05T02:07:29.044Z,101386.25
2022-10-05T02:12:36.491Z,101382.72
2022-10-05T02:17:46.385Z,101378.31
2022-10-05T02:22:53.465Z,101376.47
2022-10-05T02:28:04.567Z,101372.91
2022-10-05T02:33:28.690Z,101372.00
2022-10-05T02:38:57.525Z,101380.75
2022-10-05T02:44:17.498Z,101362.25
2022-10-05T02:49:31.153Z,101371.84
2022-10-05T02:55:09.582Z,101360.53
2022-10-05T03:00:29.901Z,101352.66
2022-10-05T03:05:35.745Z,101340.44
2022-10-05T03:10:56.788Z,101347.44
2022-10-05T03:16:32.718Z,101344.00
2022-10-05T03:22:16.895Z,101351.00
2022-10-05T03:27:44.792Z,101338.69
2022-10-05T03:32:55.202Z,101339.50
2022-10-05T03:37:57.211Z,101341.22
2022-10-05T03:43:18.578Z,101339.28
2022-10-05T03:48:54.795Z,101330.50
2022-10-05T03:54:32.431Z,101333.16
2022-10-05T04:00:03.395Z,101331.28
2022-10-05T04:05:21.760Z,101326.81
2022-10-05T04:10:25.994Z,101326.63
2022-10-05T04:15:38.035Z,101315.19
2022-10-05T04:21:00.908Z,101318.63
2022-10-05T04:26:09.455Z,101315.88
2022-10-05T04:31:17.206Z,101307.88
2022-10-05T04:36:39.763Z,101300.75
2022-10-05T04:42:09.443Z,101300.69
2022-10-05T04:47:15.020Z,101294.50
2022-10-05T04:52:35.770Z,101291.81
2022-10-05T04:57:49.121Z,101287.28
2022-10-05T05:03:27.041Z,101293.41
2022-10-05T05:08:44.693Z,101291.59
2022-10-05T05:14:01.404Z,101288.09
2022-10-05T05:19:25.782Z,101289.75
2022-10-05T05:24:30.382Z,101285.41
2022-10-05T05:29:42.723Z,101278.38
2022-10-05T05:35:27.243Z,101274.88
2022-10-05T05:40:36.171Z,101267.19
2022-10-05T05:45:41.787Z,101264.75
2022-10-05T05:51:12.051Z,101261.28
2022-10-05T05:56:37.234Z,101257.03
2022-10-05T06:01:45.136Z,101262.28
2022-10-05T06:06:52.207Z,101261.63
2022-10-05T06:12:02.101Z,101258.16
2022-10-05T06:17:12.178Z,101271.38
2022-10-05T06:22:30.536Z,101253.00
2022-10-05T06:27:58.076Z,101259.16
2022-10-05T06:33:24.951Z,101262.72
2022-10-05T06:38:56.422Z,101265.44
2022-10-05T06:44:09.148Z,101285.53
2022-10-05T06:50:07.578Z,101293.41
2022-10-05T06:55:47.068Z,101290.00
2022-10-05T07:01:10.512Z,101292.66
2022-10-05T07:06:25.325Z,101292.75
2022-10-05T07:11:52.743Z,101281.31
2022-10-05T07:17:23.025Z,101285.69
2022-10-05T07:22:54.097Z,101277.78
2022-10-05T07:28:13.435Z,101284.88
2022-10-05T07:33:26.292Z,101286.63
2022-10-05T07:39:02.335Z,101284.25
2022-10-05T07:44:27.147Z,101288.81
2022-10-05T07:49:52.980Z,101292.53
2022-10-05T07:55:00.765Z,101292.59
2022-10-05T08:00:10.680Z,101289.22
2022-10-05T08:05:23.260Z,101297.16
2022-10-05T08:10:49.180Z,101293.69
2022-10-05T08:16:02.122Z,101288.50
2022-10-05T08:21:11.816Z,101287.78
2022-10-05T08:26:13.245Z,101290.47
2022-10-05T08:31:24.523Z,101282.59
2022-10-05T08:37:03.122Z,101281.75
2022-10-05T08:42:42.439Z,101278.19
2022-10-05T08:48:16.489Z,101275.66
2022-10-05T08:53:26.036Z,101276.63
2022-10-05T08:58:59.790Z,101267.00
2022-10-05T09:04:28.198Z,101271.44
2022-10-05T09:10:01.831Z,101267.97
2022-10-05T09:15:26.432Z,101262.66
2022-10-05T09:20:53.823Z,101262.72
2022-10-05T09:25:58.918Z,101255.75
2022-10-05T09:31:21.914Z,101247.13
2022-10-05T09:36:48.047Z,101238.47
2022-10-05T09:42:24.196Z,101229.69
2022-10-05T09:47:28.500Z,101228.00
2022-10-05T09:52:44.789Z,101227.25
2022-10-05T09:58:14.718Z,101215.81
2022-10-05T10:08:47.334Z,101207.06
2022-10-05T10:14:09.575Z,101204.50
2022-10-05T10:19:30.108Z,101197.50
2022-10-05T10:24:51.208Z,101198.41
2022-10-05T10:30:08.597Z,101200.16
2022-10-05T10:35:40.924Z,101197.50
2022-10-05T10:41:19.660Z,101188.72
2022-10-05T10:47:08.411Z,101181.66
2022-10-05T10:52:20.306Z,101171.13
2022-10-05T10:58:03.589Z,101180.78
2022-10-05T11:03:34.070Z,101164.97
2022-10-05T11:08:50.868Z,101171.09
2022-10-05T11:14:21.186Z,101165.81
2022-10-05T11:20:04.081Z,101164.06
2022-10-05T11:25:34.089Z,101165.81
2022-10-05T11:31:09.768Z,101159.59
2022-10-05T11:36:14.070Z,101149.91
2022-10-05T11:41:36.962Z,101149.88
2022-10-05T11:46:51.650Z,101149.03
2022-10-05T11:52:19.719Z,101129.59
2022-10-05T11:57:33.657Z,101126.06
2022-10-05T12:03:01.847Z,101111.97
2022-10-05T12:08:15.463Z,101106.53
2022-10-05T12:13:34.623Z,101111.66
2022-10-05T12:18:39.510Z,101090.41
2022-10-05T12:23:56.810Z,101080.47
2022-10-05T12:29:25.908Z,101075.28
2022-10-05T12:34:47.247Z,101066.22
2022-10-05T12:39:58.956Z,101061.44
2022-10-05T12:45:00.463Z,101065.03
2022-10-05T12:50:43.015Z,101054.47
2022-10-05T12:55:56.358Z,101053.66
2022-10-05T13:01:02.972Z,101069.59
2022-10-05T13:06:28.796Z,101075.88
2022-10-05T13:11:47.865Z,101072.31
2022-10-05T13:17:07.474Z,101081.16
2022-10-05T13:22:33.187Z,101067.09
2022-10-05T13:27:40.032Z,101064.50
2022-10-05T13:33:06.432Z,101064.50
2022-10-05T13:38:24.588Z,101069.84
2022-10-05T13:43:51.591Z,101071.69
2022-10-05T13:49:18.869Z,101070.81
2022-10-05T13:54:48.261Z,101072.69
2022-10-05T14:00:07.909Z,101056.81
2022-10-05T14:05:20.806Z,101055.88
2022-10-05T14:10:38.638Z,101050.56
2022-10-05T14:15:50.131Z,101056.78
2022-10-05T14:21:25.783Z,101061.16
2022-10-05T14:26:34.760Z,101051.38
2022-10-05T15:32:49.794Z,100993.19
2022-10-05T15:38:08.855Z,101000.22
2022-10-05T15:43:16.275Z,100986.13
2022-10-05T15:48:47.270Z,100990.59
2022-10-05T15:54:31.292Z,100989.75
2022-10-05T16:00:07.921Z,100999.50
2022-10-05T16:05:47.120Z,100993.31
2022-10-05T16:11:03.955Z,100996.03
2022-10-05T16:16:43.086Z,101004.00
2022-10-05T16:22:14.058Z,101008.47
2022-10-05T16:27:41.314Z,101006.72
2022-10-05T16:32:55.637Z,101023.50
2022-10-05T16:38:16.111Z,101023.50
2022-10-05T16:43:26.446Z,101016.53
2022-10-05T16:48:44.642Z,101028.91
2022-10-05T16:54:04.971Z,101034.19
2022-10-05T16:59:25.414Z,101031.56
2022-10-05T17:04:40.046Z,101037.78
2022-10-05T17:10:07.723Z,101043.09
2022-10-05T17:15:32.335Z,101046.66
2022-10-05T17:20:47.023Z,101037.84
2022-10-05T17:26:08.005Z,101044.91
2022-10-05T17:31:17.209Z,101047.59
2022-10-05T17:36:19.034Z,101052.88
2022-10-05T17:41:26.369Z,101059.06
2022-10-05T17:46:39.365Z,101067.88
2022-10-05T17:51:59.498Z,101068.75
2022-10-05T17:57:04.503Z,101074.94
2022-10-05T18:02:43.787Z,101080.25
2022-10-05T18:07:50.794Z,101076.72
2022-10-05T18:13:01.753Z,101073.19
2022-10-05T18:18:45.964Z,101082.00
2022-10-05T18:24:04.335Z,101078.47
2022-10-05T18:29:44.133Z,101088.19
2022-10-05T18:35:02.337Z,101073.16
2022-10-05T18:40:43.651Z,101089.88
2022-10-05T18:46:19.740Z,101088.94
2022-10-05T18:51:52.778Z,101088.91
2022-10-05T18:56:54.767Z,101095.03
2022-10-05T19:02:20.916Z,101092.34
2022-10-05T19:07:37.639Z,101092.31
2022-10-05T19:13:02.330Z,101117.03
2022-10-05T19:18:19.322Z,101130.25
2022-10-05T19:23:50.291Z,101128.47
2022-10-05T19:29:36.535Z,101125.00
2022-10-05T19:34:42.516Z,101140.00
2022-10-05T19:40:08.859Z,101140.03
2022-10-05T19:45:27.942Z,101133.88
2022-10-05T19:50:33.542Z,101147.16
2022-10-05T19:55:47.053Z,101152.47
2022-10-05T20:00:55.482Z,101157.81
2022-10-05T20:06:05.516Z,101161.38
2022-10-05T20:11:14.343Z,101167.56
2022-10-05T20:16:35.102Z,101166.69
2022-10-05T20:21:50.265Z,101171.13
2022-10-05T20:27:16.231Z,101187.84
2022-10-05T20:32:18.199Z,101174.63
2022-10-05T20:37:20.131Z,101191.38
2022-10-05T20:42:23.804Z,101185.22
2022-10-05T20:47:26.237Z,101177.28
2022-10-05T20:52:27.811Z,101179.94
2022-10-05T20:57:29.458Z,101193.16
2022-10-05T21:02:31.202Z,101193.13
2022-10-05T21:07:34.219Z,101198.41
2022-10-05T21:12:35.905Z,101211.63
2022-10-05T21:17:41.657Z,101214.28
2022-10-05T21:22:43.244Z,101212.50
2022-10-05T21:27:46.308Z,101226.59
2022-10-05T21:32:47.872Z,101233.63
2022-10-05T21:37:49.514Z,101280.34
2022-10-05T21:42:51.081Z,101321.72
2022-10-05T21:47:52.771Z,101331.00
2022-10-05T21:52:54.665Z,101351.75
2022-10-05T21:57:57.026Z,101345.81
2022-10-05T22:02:58.759Z,101336.72
2022-10-05T22:08:00.620Z,101339.09
2022-10-05T22:13:03.812Z,101368.88
2022-10-05T22:18:18.806Z,101376.75
2022-10-05T22:23:28.835Z,101382.00
2022-10-05T22:28:33.975Z,101392.59
2022-10-05T22:38:55.284Z,101411.91
2022-10-05T22:43:56.857Z,101411.06
2022-10-05T22:48:58.640Z,101422.50
2022-10-05T22:54:00.198Z,101440.94
2022-10-05T22:59:01.796Z,101476.03
2022-10-05T23:04:04.444Z,101475.69
2022-10-05T23:09:06.094Z,101476.31
2022-10-05T23:14:07.602Z,101487.56
2022-10-05T23:19:09.609Z,101488.13
2022-10-05T23:24:11.281Z,101497.38
2022-10-05T23:29:12.913Z,101520.06
2022-10-05T23:34:14.498Z,101521.78
2022-10-05T23:39:16.178Z,101530.50
2022-10-05T23:44:17.920Z,101537.59
2022-10-05T23:49:19.633Z,101553.38
2022-10-05T23:54:21.170Z,101557.88
2022-10-05T23:59:22.816Z,101561.56
